Time;durP1;ratioP1;P1;durP2;ratioP2;P2;SDS_P1;SDS_P2;PMS_P1;PMS_P2;Temp;Humidity;BMP_temperature;BMP_pressure;BME280_temperature;BME280_humidity;BME280_pressure;Samples;Min_cycle;Max_cycle;Signal;HPM_P1;HPM_P2
2022/03/24 00:00:32;;;;;;;;;;;;;;;8.65;32.66;93752.19;2055246;69;20049;-73
2022/03/24 00:02:57;;;;;;;;;;;;;;;9.02;30.95;93749.63;2055183;70;20057;-74
2022/03/24 00:05:23;;;;;;;;;;;;;;;9.35;29.92;93753.81;2065031;69;20133;-74
2022/03/24 00:07:50;;;;;;;;;;;;;;;9.23;29.53;93752.78;2055413;69;20481;-74
2022/03/24 00:10:17;;;;;;;;;;;;;;;8.83;31.05;93753.72;2068179;69;20050;-73
2022/03/24 00:12:43;;;;;;;;;;;;;;;8.73;30.76;93761.28;2068019;69;20130;-73
2022/03/24 00:15:08;;;;;;;;;;;;;;;8.61;32.17;93754.63;2068112;69;20077;-74
2022/03/24 00:17:34;;;;;;;;;;;;;;;8.67;31.46;93760.78;2055644;70;20469;-74
2022/03/24 00:20:00;;;;;;;;;;;;;;;8.70;31.90;93750.44;2068517;69;20103;-74
2022/03/24 00:22:26;;;;;;;;;;;;;;;8.78;31.44;93751.16;2068304;69;20055;-74
2022/03/24 00:25:01;;;;;;;;;;;;;;;8.79;31.24;93750.56;2055521;69;20053;-74
2022/03/24 00:27:28;;;;;;;;;;;;;;;8.88;30.68;93754.78;2055380;69;20046;-75
2022/03/24 00:29:54;;;;;;;;;;;;;;;8.25;32.09;93750.19;2055267;69;20531;-74
2022/03/24 00:32:19;;;;;;;;;;;;;;;8.53;31.69;93757.53;2068394;69;20500;-75
2022/03/24 00:34:45;;;;;;;;;;;;;;;8.50;32.11;93750.22;2055669;69;20053;-74
2022/03/24 00:37:11;;;;;;;;;;;;;;;8.56;31.68;93745.13;2068502;69;20054;-74
2022/03/24 00:39:38;;;;;;;;;;;;;;;8.41;32.15;93748.06;2055676;69;20061;-75
2022/03/24 00:42:09;;;;;;;;;;;;;;;8.31;33.46;93744.38;2065681;69;20069;-72
2022/03/24 00:44:36;;;;;;;;;;;;;;;8.33;32.41;93739.66;2068249;69;20054;-74
2022/03/24 00:47:02;;;;;;;;;;;;;;;8.10;33.27;93748.22;2068631;69;20054;-74
2022/03/24 00:49:28;;;;;;;;;;;;;;;7.92;33.61;93743.81;2068439;69;20409;-75
2022/03/24 00:51:55;;;;;;;;;;;;;;;7.98;33.97;93738.03;2055445;69;20073;-76
2022/03/24 00:54:22;;;;;;;;;;;;;;;7.81;34.46;93747.06;2068164;69;20054;-76
2022/03/24 00:56:48;;;;;;;;;;;;;;;7.94;32.83;93749.63;2055159;70;20105;-74
2022/03/24 00:59:14;;;;;;;;;;;;;;;8.00;32.66;93746.59;2055020;70;20162;-75
2022/03/24 01:01:41;;;;;;;;;;;;;;;7.91;33.51;93742.34;2068422;69;20062;-75
2022/03/24 01:04:09;;;;;;;;;;;;;;;7.75;34.55;93747.28;2055397;69;20066;-75
2022/03/24 01:06:35;;;;;;;;;;;;;;;7.71;34.54;93734.97;2055826;69;20062;-74
2022/03/24 01:09:02;;;;;;;;;;;;;;;8.00;33.87;93733.31;2055682;69;20149;-74
2022/03/24 01:11:28;;;;;;;;;;;;;;;7.82;33.56;93738.09;2068417;69;20054;-75
2022/03/24 01:13:54;;;;;;;;;;;;;;;7.74;34.20;93737.38;2068696;69;20096;-74
2022/03/24 01:16:25;;;;;;;;;;;;;;;7.73;34.69;93732.34;2068416;69;20448;-74
2022/03/24 01:18:52;;;;;;;;;;;;;;;7.44;35.24;93737.50;2065842;69;20060;-75
2022/03/24 01:21:21;;;;;;;;;;;;;;;7.41;35.02;93733.03;2068748;69;20051;-74
2022/03/24 01:23:47;;;;;;;;;;;;;;;7.33;36.02;93733.03;2055402;70;20050;-74
2022/03/24 01:26:14;;;;;;;;;;;;;;;7.17;36.88;93737.22;2055532;70;20061;-74
2022/03/24 01:28:41;;;;;;;;;;;;;;;7.62;35.28;93736.31;2068602;69;20054;-74
2022/03/24 01:31:14;;;;;;;;;;;;;;;7.40;34.57;93735.09;2067881;69;20418;-75
2022/03/24 01:33:40;;;;;;;;;;;;;;;7.15;36.74;93735.00;2055626;69;20101;-74
2022/03/24 01:36:06;;;;;;;;;;;;;;;7.47;34.45;93731.53;2068679;69;20151;-74
2022/03/24 01:38:32;;;;;;;;;;;;;;;7.07;36.28;93728.66;2055668;70;20058;-75
2022/03/24 01:40:58;;;;;;;;;;;;;;;7.05;36.89;93725.66;2055591;69;20089;-74
2022/03/24 01:43:24;;;;;;;;;;;;;;;7.00;37.61;93732.22;2068578;69;20102;-75
2022/03/24 01:45:51;;;;;;;;;;;;;;;6.74;37.50;93731.31;2055436;69;20151;-75
2022/03/24 01:48:16;;;;;;;;;;;;;;;7.01;36.32;93725.28;2068461;69;20082;-75
2022/03/24 01:50:43;;;;;;;;;;;;;;;7.17;34.82;93726.00;2071204;69;20054;-74
2022/03/24 01:53:09;;;;;;;;;;;;;;;6.66;37.87;93716.59;2055534;70;20052;-75
2022/03/24 01:55:34;;;;;;;;;;;;;;;6.87;37.36;93717.13;2068473;69;20066;-75
2022/03/24 01:58:02;;;;;;;;;;;;;;;6.62;38.13;93719.00;2068550;69;20050;-75
2022/03/24 02:00:28;;;;;;;;;;;;;;;6.80;36.53;93717.88;2068357;69;20062;-75
2022/03/24 02:02:53;;;;;;;;;;;;;;;6.80;37.03;93720.69;2068464;69;20394;-75
2022/03/24 02:05:19;;;;;;;;;;;;;;;6.86;36.22;93717.69;2055602;70;20473;-74
2022/03/24 02:07:44;;;;;;;;;;;;;;;6.68;38.12;93718.81;2068513;69;20096;-75
2022/03/24 02:10:11;;;;;;;;;;;;;;;6.62;37.59;93716.97;2068494;69;20554;-74
2022/03/24 02:12:39;;;;;;;;;;;;;;;6.60;37.10;93714.00;2057664;69;20433;-74
2022/03/24 02:15:08;;;;;;;;;;;;;;;6.51;38.28;93714.56;2048197;69;20054;-74
2022/03/24 02:17:34;;;;;;;;;;;;;;;6.65;37.25;93715.09;2048405;70;20082;-74
2022/03/24 02:20:00;;;;;;;;;;;;;;;6.64;37.20;93708.00;2048288;70;20150;-74
2022/03/24 02:22:28;;;;;;;;;;;;;;;6.56;37.82;93710.06;2048998;70;20049;-74
2022/03/24 02:24:54;;;;;;;;;;;;;;;6.39;38.31;93710.63;2048314;70;20177;-74
2022/03/24 02:27:23;;;;;;;;;;;;;;;6.47;37.55;93713.44;2048914;70;20100;-74
2022/03/24 02:29:49;;;;;;;;;;;;;;;6.73;36.45;93710.22;2045986;70;20567;-74
2022/03/24 02:32:19;;;;;;;;;;;;;;;6.50;37.62;93701.84;2049379;70;20048;-74
2022/03/24 02:34:52;;;;;;;;;;;;;;;6.58;36.25;93699.81;2049423;70;20456;-74
2022/03/24 02:37:23;;;;;;;;;;;;;;;6.20;38.53;93699.06;2049339;70;20047;-74
2022/03/24 02:39:50;;;;;;;;;;;;;;;6.22;38.59;93705.59;2048843;70;20134;-74
2022/03/24 02:42:20;;;;;;;;;;;;;;;6.36;38.24;93701.28;2048778;70;20059;-74
2022/03/24 02:44:50;;;;;;;;;;;;;;;6.16;38.60;93702.22;2048698;70;20058;-74
2022/03/24 02:47:16;;;;;;;;;;;;;;;6.16;37.94;93705.03;2048781;70;20081;-74
2022/03/24 02:49:42;;;;;;;;;;;;;;;6.24;38.63;93702.25;2046000;70;20571;-74
2022/03/24 02:52:08;;;;;;;;;;;;;;;6.09;38.58;93703.72;2049327;70;20098;-74
2022/03/24 02:54:35;;;;;;;;;;;;;;;6.00;39.33;93707.06;2048785;70;20153;-74
2022/03/24 02:57:00;;;;;;;;;;;;;;;5.98;39.72;93709.66;2048754;70;20512;-74
2022/03/24 02:59:26;;;;;;;;;;;;;;;5.94;39.67;93708.53;2049211;70;20093;-74
2022/03/24 03:01:52;;;;;;;;;;;;;;;5.95;38.47;93705.19;2049286;70;20180;-74
2022/03/24 03:04:18;;;;;;;;;;;;;;;6.28;37.28;93711.75;2049339;70;20047;-74
2022/03/24 03:06:45;;;;;;;;;;;;;;;5.83;39.33;93715.94;2048702;70;20136;-74
2022/03/24 03:09:14;;;;;;;;;;;;;;;5.98;39.43;93711.72;2049254;70;20046;-74
2022/03/24 03:11:47;;;;;;;;;;;;;;;5.90;39.54;93711.66;2050552;70;20469;-74
2022/03/24 03:14:17;;;;;;;;;;;;;;;5.79;39.69;93712.03;2065915;69;20050;-74
2022/03/24 03:16:44;;;;;;;;;;;;;;;6.04;36.87;93715.81;2068828;69;20054;-74
2022/03/24 03:19:10;;;;;;;;;;;;;;;5.86;39.25;93712.06;2055880;70;20078;-74
2022/03/24 03:21:36;;;;;;;;;;;;;;;5.82;40.11;93711.66;2055920;70;20047;-75
2022/03/24 03:24:02;;;;;;;;;;;;;;;5.66;40.12;93712.19;2055893;69;20047;-74
2022/03/24 03:26:28;;;;;;;;;;;;;;;5.68;38.79;93713.13;2055995;69;20216;-74
2022/03/24 03:28:54;;;;;;;;;;;;;;;5.39;40.64;93720.09;2055715;69;20615;-75
2022/03/24 03:31:19;;;;;;;;;;;;;;;5.39;40.89;93718.03;2055856;69;20053;-74
2022/03/24 03:33:45;;;;;;;;;;;;;;;5.32;40.14;93722.31;2055938;70;20485;-74
2022/03/24 03:36:11;;;;;;;;;;;;;;;5.34;40.98;93716.16;2055920;69;20142;-74
2022/03/24 03:38:36;;;;;;;;;;;;;;;5.48;40.10;93722.38;2055884;70;20428;-74
2022/03/24 03:41:02;;;;;;;;;;;;;;;5.35;40.73;93723.97;2055837;70;20053;-74
2022/03/24 03:43:28;;;;;;;;;;;;;;;5.49;39.71;93727.38;2055793;69;20043;-74
2022/03/24 03:45:53;;;;;;;;;;;;;;;5.45;40.51;93727.03;2068711;69;20054;-74
2022/03/24 03:48:19;;;;;;;;;;;;;;;5.40;40.53;93722.31;2055803;69;20405;-74
2022/03/24 03:50:44;;;;;;;;;;;;;;;5.24;40.91;93723.56;2055808;70;20179;-74
2022/03/24 03:53:10;;;;;;;;;;;;;;;5.26;41.35;93723.75;2068779;69;20046;-74
2022/03/24 03:55:36;;;;;;;;;;;;;;;5.20;40.72;93725.97;2055703;70;20058;-74
2022/03/24 03:58:02;;;;;;;;;;;;;;;5.30;40.74;93735.31;2068777;69;20574;-74
2022/03/24 04:03:11;;;;;;;;;;;;;;;5.20;40.57;93732.31;2068779;69;20503;-73
2022/03/24 04:05:37;;;;;;;;;;;;;;;5.32;40.51;93727.91;2055897;70;20050;-74
2022/03/24 04:08:03;;;;;;;;;;;;;;;5.28;40.84;93732.34;2068752;69;20054;-74
2022/03/24 04:10:30;;;;;;;;;;;;;;;5.05;41.36;93721.06;2068730;69;20090;-74
2022/03/24 04:12:59;;;;;;;;;;;;;;;5.27;40.80;93723.22;2055477;69;20055;-74
2022/03/24 04:15:25;;;;;;;;;;;;;;;4.96;41.30;93725.13;2048481;70;20082;-74
2022/03/24 04:17:53;;;;;;;;;;;;;;;4.81;42.29;93716.63;2049163;70;20047;-74
2022/03/24 04:20:21;;;;;;;;;;;;;;;4.93;42.11;93726.19;2048655;70;20078;-74
2022/03/24 04:22:49;;;;;;;;;;;;;;;4.66;42.72;93722.88;2049168;70;20051;-74
2022/03/24 04:25:17;;;;;;;;;;;;;;;4.63;43.11;93723.22;2049204;70;20075;-74
2022/03/24 04:27:43;;;;;;;;;;;;;;;5.05;41.48;93726.66;2049151;70;20047;-74
2022/03/24 04:30:09;;;;;;;;;;;;;;;4.98;41.36;93721.75;2049102;70;20430;-74
2022/03/24 04:32:35;;;;;;;;;;;;;;;4.98;41.00;93721.75;2049404;70;20478;-75
2022/03/24 04:35:01;;;;;;;;;;;;;;;5.27;37.88;93730.84;2049153;70;20059;-74
2022/03/24 04:37:26;;;;;;;;;;;;;;;4.85;43.02;93726.16;2049132;70;20055;-75
2022/03/24 04:39:52;;;;;;;;;;;;;;;4.90;42.60;93723.75;2049168;70;20054;-75
2022/03/24 04:42:17;;;;;;;;;;;;;;;4.80;41.93;93727.06;2049167;70;20071;-74
2022/03/24 04:44:43;;;;;;;;;;;;;;;4.64;43.54;93728.25;2048515;70;20086;-75
2022/03/24 04:47:08;;;;;;;;;;;;;;;4.63;42.69;93732.34;2049167;70;20059;-74
2022/03/24 04:49:34;;;;;;;;;;;;;;;4.67;42.41;93735.53;2049169;70;20067;-75
2022/03/24 04:51:59;;;;;;;;;;;;;;;4.62;42.99;93733.63;2049020;70;20058;-75
2022/03/24 04:54:25;;;;;;;;;;;;;;;4.80;41.67;93735.41;2049125;70;20142;-74
2022/03/24 04:56:50;;;;;;;;;;;;;;;4.65;41.62;93734.59;2049139;70;20210;-75
2022/03/24 04:59:16;;;;;;;;;;;;;;;4.71;41.92;93735.19;2048950;70;20047;-75
2022/03/24 05:01:41;;;;;;;;;;;;;;;4.26;44.44;93739.88;2049236;70;20054;-75
2022/03/24 05:04:07;;;;;;;;;;;;;;;4.38;43.64;93734.00;2049243;70;20043;-75
2022/03/24 05:06:33;;;;;;;;;;;;;;;4.43;43.26;93731.06;2049106;70;20055;-74
2022/03/24 05:08:59;;;;;;;;;;;;;;;4.61;42.29;93734.94;2049080;70;20420;-74
2022/03/24 05:11:24;;;;;;;;;;;;;;;4.73;40.60;93732.59;2049479;70;20524;-74
2022/03/24 05:13:51;;;;;;;;;;;;;;;4.60;42.97;93741.81;2068615;69;20046;-74
2022/03/24 05:16:17;;;;;;;;;;;;;;;4.49;42.80;93736.50;2055689;70;20055;-75
2022/03/24 05:18:42;;;;;;;;;;;;;;;4.48;43.61;93737.81;2055720;69;20038;-74
2022/03/24 05:21:08;;;;;;;;;;;;;;;4.52;43.40;93736.16;2068630;69;20424;-75
2022/03/24 05:23:34;;;;;;;;;;;;;;;4.52;43.25;93741.75;2055686;69;20135;-74
2022/03/24 05:25:59;;;;;;;;;;;;;;;4.40;43.42;93742.56;2055655;69;20564;-74
2022/03/24 05:28:25;;;;;;;;;;;;;;;4.34;43.31;93737.88;2055981;69;20520;-75
2022/03/24 05:30:50;;;;;;;;;;;;;;;4.26;43.43;93736.31;2068519;69;20060;-74
2022/03/24 05:33:16;;;;;;;;;;;;;;;4.43;42.92;93733.88;2055758;70;20054;-74
2022/03/24 05:35:42;;;;;;;;;;;;;;;4.55;42.88;93739.91;2068599;69;20073;-74
2022/03/24 05:38:07;;;;;;;;;;;;;;;4.14;44.46;93743.47;2055624;70;20141;-74
2022/03/24 05:40:35;;;;;;;;;;;;;;;4.23;43.84;93743.00;2055773;69;20389;-73
2022/03/24 05:43:00;;;;;;;;;;;;;;;4.19;44.59;93743.34;2055745;70;20049;-73
2022/03/24 05:45:27;;;;;;;;;;;;;;;4.34;43.13;93745.50;2055516;69;20050;-74
2022/03/24 05:47:54;;;;;;;;;;;;;;;4.49;41.96;93744.88;2055616;70;20420;-74
2022/03/24 05:50:32;;;;;;;;;;;;;;;4.65;40.14;93749.28;2066128;69;20124;-75
2022/03/24 05:53:11;;;;;;;;;;;;;;;4.55;42.75;93751.81;2071453;69;20070;-74
2022/03/24 05:55:38;;;;;;;;;;;;;;;4.62;42.86;93755.19;2055773;69;20474;-74
2022/03/24 05:58:04;;;;;;;;;;;;;;;4.53;42.61;93759.97;2055709;69;20051;-74
2022/03/24 06:00:29;;;;;;;;;;;;;;;4.39;43.39;93761.34;2055513;69;20046;-74
2022/03/24 06:02:55;;;;;;;;;;;;;;;4.54;42.95;93755.91;2055693;70;20413;-75
2022/03/24 06:05:22;;;;;;;;;;;;;;;4.36;43.62;93756.88;2055601;69;20145;-75
2022/03/24 06:07:48;;;;;;;;;;;;;;;4.59;42.48;93757.81;2055686;70;20507;-76
2022/03/24 06:10:13;;;;;;;;;;;;;;;4.53;42.79;93753.66;2068586;69;20054;-76
2022/03/24 06:12:40;;;;;;;;;;;;;;;4.53;43.10;93753.66;2055551;70;20058;-74
2022/03/24 06:15:06;;;;;;;;;;;;;;;4.47;43.80;93755.84;2071228;69;20256;-74
2022/03/24 06:17:31;;;;;;;;;;;;;;;4.46;42.67;93754.34;2068515;69;20161;-75
2022/03/24 06:19:57;;;;;;;;;;;;;;;4.72;41.64;93751.38;2055763;70;20217;-75
2022/03/24 06:22:22;;;;;;;;;;;;;;;4.83;40.68;93750.34;2055668;70;20199;-75
2022/03/24 06:24:48;;;;;;;;;;;;;;;4.55;42.70;93746.25;2055682;70;20054;-75
2022/03/24 06:27:13;;;;;;;;;;;;;;;4.70;42.59;93744.84;2055660;70;20489;-75
2022/03/24 06:29:39;;;;;;;;;;;;;;;4.67;42.88;93748.72;2055416;70;20564;-75
2022/03/24 06:32:05;;;;;;;;;;;;;;;4.21;44.36;93742.78;2055484;70;20074;-75
2022/03/24 06:34:31;;;;;;;;;;;;;;;4.39;44.23;93746.66;2055534;70;20047;-75
2022/03/24 06:36:57;;;;;;;;;;;;;;;4.50;43.88;93749.19;2055454;70;20142;-75
2022/03/24 06:39:22;;;;;;;;;;;;;;;4.49;43.86;93747.66;2055486;70;20050;-75
2022/03/24 06:41:48;;;;;;;;;;;;;;;4.52;43.96;93744.53;2068473;69;20149;-75
2022/03/24 06:44:14;;;;;;;;;;;;;;;4.51;44.22;93753.44;2055451;70;20543;-74
2022/03/24 06:46:40;;;;;;;;;;;;;;;4.59;43.84;93745.91;2055518;70;20054;-74
2022/03/24 06:49:06;;;;;;;;;;;;;;;4.67;43.94;93740.34;2055309;70;20050;-75
2022/03/24 06:51:32;;;;;;;;;;;;;;;4.73;43.11;93740.97;2055439;70;20056;-75
2022/03/24 06:53:58;;;;;;;;;;;;;;;4.78;42.58;93740.81;2055456;70;20050;-75
2022/03/24 06:56:23;;;;;;;;;;;;;;;4.90;40.35;93737.72;2055453;70;20525;-75
2022/03/24 06:58:49;;;;;;;;;;;;;;;4.83;42.54;93733.59;2068319;69;20548;-74
2022/03/24 07:01:15;;;;;;;;;;;;;;;4.89;42.52;93739.75;2055402;70;20081;-74
2022/03/24 07:03:42;;;;;;;;;;;;;;;4.85;43.37;93733.78;2068252;69;20046;-75
2022/03/24 07:06:08;;;;;;;;;;;;;;;4.81;43.64;93739.72;2055396;70;20161;-75
2022/03/24 07:08:35;;;;;;;;;;;;;;;4.96;42.31;93735.53;2055411;69;20054;-74
2022/03/24 07:11:01;;;;;;;;;;;;;;;4.82;42.88;93746.06;2068339;69;20046;-75
2022/03/24 07:13:26;;;;;;;;;;;;;;;4.87;42.42;93733.25;2050412;69;20047;-75
2022/03/24 07:15:52;;;;;;;;;;;;;;;4.94;42.13;93729.75;2049176;70;20057;-75
2022/03/24 07:18:17;;;;;;;;;;;;;;;5.05;39.46;93732.97;2049336;70;20090;-74
2022/03/24 07:20:43;;;;;;;;;;;;;;;5.10;41.85;93732.06;2049316;70;20057;-74
2022/03/24 07:23:09;;;;;;;;;;;;;;;5.08;42.25;93736.69;2049248;70;20486;-76
2022/03/24 07:25:36;;;;;;;;;;;;;;;5.12;41.93;93725.94;2046023;70;20075;-74
2022/03/24 07:28:02;;;;;;;;;;;;;;;4.98;42.29;93724.56;2048727;70;20141;-74
2022/03/24 07:30:28;;;;;;;;;;;;;;;5.21;43.34;93725.41;2048769;70;20062;-74
2022/03/24 07:32:57;;;;;;;;;;;;;;;5.79;41.75;93721.16;2048876;70;20051;-73
2022/03/24 07:35:26;;;;;;;;;;;;;;;6.30;41.80;93719.56;2048761;70;20051;-74
2022/03/24 07:37:53;;;;;;;;;;;;;;;6.75;42.14;93724.41;2049345;70;20051;-73
2022/03/24 07:40:21;;;;;;;;;;;;;;;7.11;42.37;93726.22;2049274;70;20057;-74
2022/03/24 07:42:46;;;;;;;;;;;;;;;7.74;38.72;93723.34;2049244;70;20470;-74
2022/03/24 07:45:16;;;;;;;;;;;;;;;7.95;37.54;93728.69;2049152;70;20074;-75
2022/03/24 07:48:00;;;;;;;;;;;;;;;8.29;39.45;93722.50;2048698;70;20426;-74
2022/03/24 07:50:26;;;;;;;;;;;;;;;8.72;38.83;93711.34;2049350;70;20054;-75
2022/03/24 07:52:52;;;;;;;;;;;;;;;9.22;37.05;93716.84;2049248;70;20043;-75
2022/03/24 07:55:18;;;;;;;;;;;;;;;9.72;36.02;93720.22;2049171;70;20059;-74
2022/03/24 07:57:44;;;;;;;;;;;;;;;10.25;37.36;93721.56;2049189;70;20134;-74
2022/03/24 08:00:10;;;;;;;;;;;;;;;10.49;36.08;93719.94;2049066;70;20051;-74
2022/03/24 08:02:43;;;;;;;;;;;;;;;10.45;34.06;93716.81;2049200;70;20055;-74
2022/03/24 08:05:08;;;;;;;;;;;;;;;11.24;34.31;93710.78;2049211;70;20058;-75
2022/03/24 08:07:34;;;;;;;;;;;;;;;11.52;32.49;93720.59;2048651;70;20051;-75
2022/03/24 08:09:59;;;;;;;;;;;;;;;11.67;33.13;93713.91;2049252;70;20059;-74
2022/03/24 08:12:24;;;;;;;;;;;;;;;12.05;31.31;93715.22;2048620;70;20482;-78
2022/03/24 08:14:50;;;;;;;;;;;;;;;12.31;30.83;93714.28;2049066;70;20518;-76
2022/03/24 08:17:15;;;;;;;;;;;;;;;13.64;29.21;93709.13;2049123;70;20059;-76
2022/03/24 08:19:41;;;;;;;;;;;;;;;13.38;29.50;93708.88;2049171;70;20116;-75
2022/03/24 08:22:07;;;;;;;;;;;;;;;14.48;27.88;93692.56;2049218;70;20063;-75
2022/03/24 08:24:32;;;;;;;;;;;;;;;14.70;26.34;93705.25;2049120;70;20399;-75
2022/03/24 08:26:58;;;;;;;;;;;;;;;14.72;26.01;93704.66;2048625;70;20051;-75
2022/03/24 08:29:23;;;;;;;;;;;;;;;13.99;26.96;93700.78;2049075;70;20062;-75
2022/03/24 08:31:49;;;;;;;;;;;;;;;14.56;27.19;93700.81;2049204;70;20050;-75
2022/03/24 08:34:15;;;;;;;;;;;;;;;15.47;26.19;93697.06;2048513;70;20067;-75
2022/03/24 08:36:41;;;;;;;;;;;;;;;15.29;27.08;93696.00;2049190;70;20050;-75
2022/03/24 08:39:07;;;;;;;;;;;;;;;15.70;26.70;93701.97;2049456;70;20046;-75
2022/03/24 08:41:32;;;;;;;;;;;;;;;16.31;25.49;93693.31;2049170;70;20096;-74
2022/03/24 08:43:58;;;;;;;;;;;;;;;16.38;25.38;93704.38;2049002;70;20175;-74
2022/03/24 08:46:25;;;;;;;;;;;;;;;16.83;24.70;93695.47;2045876;70;20116;-74
2022/03/24 08:48:51;;;;;;;;;;;;;;;16.70;23.53;93696.91;2048632;70;20117;-75
2022/03/24 08:51:16;;;;;;;;;;;;;;;16.87;23.28;93692.84;2049252;70;20433;-74
2022/03/24 08:53:42;;;;;;;;;;;;;;;18.06;23.20;93685.38;2049186;70;20047;-76
2022/03/24 08:56:07;;;;;;;;;;;;;;;17.27;21.89;93691.41;2048990;70;20054;-75
2022/03/24 08:58:33;;;;;;;;;;;;;;;17.68;23.20;93692.72;2049242;70;20404;-76
2022/03/24 09:00:58;;;;;;;;;;;;;;;17.80;21.79;93686.94;2049024;70;20154;-75
2022/03/24 09:03:24;;;;;;;;;;;;;;;17.28;21.75;93683.59;2049067;70;20087;-75
2022/03/24 09:05:49;;;;;;;;;;;;;;;18.41;20.96;93676.34;2049144;70;20054;-75
2022/03/24 09:08:15;;;;;;;;;;;;;;;18.85;21.53;93676.25;2049074;70;20168;-75
2022/03/24 09:10:40;;;;;;;;;;;;;;;19.03;19.68;93672.09;2048383;70;20143;-74
2022/03/24 09:13:07;;;;;;;;;;;;;;;19.12;19.95;93673.22;2053982;70;20469;-75
2022/03/24 09:15:33;;;;;;;;;;;;;;;18.94;18.92;93666.69;2055590;69;20050;-74
2022/03/24 09:17:58;;;;;;;;;;;;;;;19.80;19.06;93671.16;2068652;69;20054;-75
2022/03/24 09:20:25;;;;;;;;;;;;;;;19.16;18.50;93669.81;2055667;70;20046;-75
2022/03/24 09:22:51;;;;;;;;;;;;;;;20.13;19.30;93669.63;2068567;69;20057;-75
2022/03/24 09:25:19;;;;;;;;;;;;;;;20.27;18.52;93668.09;2068694;69;20054;-75
2022/03/24 09:27:45;;;;;;;;;;;;;;;20.29;17.83;93664.56;2068635;69;20057;-75
2022/03/24 09:30:12;;;;;;;;;;;;;;;20.37;18.07;93655.56;2055561;70;20046;-77
2022/03/24 09:32:38;;;;;;;;;;;;;;;21.22;19.07;93658.84;2068617;69;20151;-78
2022/03/24 09:35:05;;;;;;;;;;;;;;;21.04;17.27;93656.03;2055696;69;20100;-78
2022/03/24 09:37:32;;;;;;;;;;;;;;;21.94;17.50;93655.63;2068479;69;20054;-79
2022/03/24 09:39:58;;;;;;;;;;;;;;;21.78;17.89;93650.06;2055585;70;20115;-78
2022/03/24 09:42:23;;;;;;;;;;;;;;;20.88;17.91;93646.84;2055616;69;20503;-77
2022/03/24 09:44:50;;;;;;;;;;;;;;;22.07;17.88;93646.75;2055565;69;20066;-76
2022/03/24 09:47:16;;;;;;;;;;;;;;;21.60;17.48;93644.44;2055627;69;20061;-77
2022/03/24 09:49:42;;;;;;;;;;;;;;;20.85;18.65;93633.88;2055573;70;20058;-77
2022/03/24 09:52:10;;;;;;;;;;;;;;;22.31;16.82;93638.25;2055619;70;20139;-75
2022/03/24 09:54:35;;;;;;;;;;;;;;;22.43;16.58;93637.16;2055577;70;20073;-77
2022/03/24 09:57:07;;;;;;;;;;;;;;;22.97;15.58;93631.66;2055569;69;20070;-77
2022/03/24 09:59:33;;;;;;;;;;;;;;;23.55;14.90;93626.09;2055438;70;20096;-76
2022/03/24 10:02:01;;;;;;;;;;;;;;;23.34;15.86;93621.94;2055650;70;20105;-76
2022/03/24 10:04:26;;;;;;;;;;;;;;;24.09;14.77;93617.44;2068549;69;20112;-77
2022/03/24 10:06:59;;;;;;;;;;;;;;;22.91;16.24;93617.09;2068520;69;20425;-76
2022/03/24 10:09:44;;;;;;;;;;;;;;;22.56;16.02;93610.31;2068541;69;20516;-77
2022/03/24 10:12:21;;;;;;;;;;;;;;;23.68;16.58;93601.31;2055522;69;20058;-76
2022/03/24 10:15:02;;;;;;;;;;;;;;;22.07;15.33;93600.88;2068397;69;20055;-76
2022/03/24 10:17:28;;;;;;;;;;;;;;;23.80;14.74;93596.59;2055504;70;20061;-76
2022/03/24 10:20:01;;;;;;;;;;;;;;;24.33;14.13;93595.03;2055535;70;20046;-76
2022/03/24 10:22:27;;;;;;;;;;;;;;;24.34;14.96;93587.84;2055505;70;20060;-76
2022/03/24 10:24:53;;;;;;;;;;;;;;;24.81;14.06;93588.22;2055496;70;20445;-76
2022/03/24 10:27:25;;;;;;;;;;;;;;;24.62;13.87;93580.59;2055507;69;20058;-76
2022/03/24 10:29:55;;;;;;;;;;;;;;;24.94;14.18;93577.69;2068386;69;20054;-76
2022/03/24 10:32:21;;;;;;;;;;;;;;;25.12;14.66;93578.09;2068566;69;20112;-77
2022/03/24 10:34:48;;;;;;;;;;;;;;;25.04;15.13;93581.50;2055470;70;20056;-76
2022/03/24 10:37:25;;;;;;;;;;;;;;;24.79;14.22;93577.38;2055421;69;20051;-75
2022/03/24 10:40:17;;;;;;;;;;;;;;;23.95;13.80;93571.09;2055498;69;20058;-76
2022/03/24 10:42:42;;;;;;;;;;;;;;;25.92;13.23;93570.94;2054893;69;20502;-76
2022/03/24 10:45:17;;;;;;;;;;;;;;;25.10;13.54;93569.38;2055358;70;20133;-76
2022/03/24 10:47:45;;;;;;;;;;;;;;;26.40;13.21;93555.84;2055547;69;20055;-76
2022/03/24 10:50:21;;;;;;;;;;;;;;;26.40;13.46;93558.72;2068160;69;20042;-75
2022/03/24 10:52:46;;;;;;;;;;;;;;;28.14;13.53;93561.56;2052395;70;20099;-75
2022/03/24 10:55:12;;;;;;;;;;;;;;;26.71;13.29;93554.13;2052494;69;20487;-75
2022/03/24 10:57:39;;;;;;;;;;;;;;;27.05;12.13;93545.94;2052243;70;20063;-75
2022/03/24 11:00:05;;;;;;;;;;;;;;;27.47;13.24;93538.47;2052295;70;20067;-76
2022/03/24 11:02:32;;;;;;;;;;;;;;;27.27;11.80;93541.88;2052575;70;20132;-75
2022/03/24 11:04:58;;;;;;;;;;;;;;;30.34;10.98;93537.19;2065379;69;20062;-75
2022/03/24 11:07:27;;;;;;;;;;;;;;;31.34;11.46;93539.91;2052473;70;20057;-75
2022/03/24 11:09:53;;;;;;;;;;;;;;;31.76;10.21;93540.41;2065196;69;20093;-76
2022/03/24 11:12:27;;;;;;;;;;;;;;;32.98;9.27;93533.63;2052301;70;20506;-76
2022/03/24 11:14:54;;;;;;;;;;;;;;;34.19;8.89;93541.63;2052297;70;20070;-76
2022/03/24 11:17:26;;;;;;;;;;;;;;;34.83;9.09;93538.41;2052371;69;20051;-76
2022/03/24 11:19:57;;;;;;;;;;;;;;;34.03;8.89;93530.88;2052099;70;20067;-77
2022/03/24 11:22:33;;;;;;;;;;;;;;;33.76;8.64;93527.59;2065351;69;20087;-76
2022/03/24 11:24:59;;;;;;;;;;;;;;;34.99;8.78;93531.53;2052259;69;20051;-76
2022/03/24 11:27:25;;;;;;;;;;;;;;;34.20;8.35;93525.53;2052361;69;20498;-76
2022/03/24 11:29:51;;;;;;;;;;;;;;;34.27;8.89;93521.03;2062434;69;20093;-75
2022/03/24 11:32:16;;;;;;;;;;;;;;;34.37;8.67;93514.31;2065176;69;20062;-76
2022/03/24 11:34:42;;;;;;;;;;;;;;;35.33;8.74;93509.66;2065335;69;20094;-76
2022/03/24 11:37:09;;;;;;;;;;;;;;;34.70;8.52;93505.72;2065288;69;20086;-77
2022/03/24 11:39:34;;;;;;;;;;;;;;;38.00;7.59;93508.84;2052255;70;20501;-78
2022/03/24 11:42:00;;;;;;;;;;;;;;;37.03;7.59;93513.06;2062641;69;20487;-78
2022/03/24 11:44:48;;;;;;;;;;;;;;;35.41;7.73;93497.78;2065192;69;20583;-77
2022/03/24 11:47:15;;;;;;;;;;;;;;;34.58;7.96;93492.03;2065147;69;20062;-78
2022/03/24 11:49:41;;;;;;;;;;;;;;;36.08;8.15;93487.56;2052212;69;20058;-77
2022/03/24 11:52:07;;;;;;;;;;;;;;;37.13;7.50;93488.59;2052247;70;20501;-78
2022/03/24 11:54:36;;;;;;;;;;;;;;;38.04;7.88;93479.34;2052226;70;20062;-79
2022/03/24 11:57:20;;;;;;;;;;;;;;;36.63;7.67;93479.63;2052199;70;20047;-79
2022/03/24 11:59:46;;;;;;;;;;;;;;;35.80;8.17;93473.56;2052034;70;20178;-78
2022/03/24 12:02:17;;;;;;;;;;;;;;;37.38;7.58;93468.81;2052180;69;20585;-78
2022/03/24 12:04:44;;;;;;;;;;;;;;;35.94;7.86;93467.34;2052083;70;20071;-77
2022/03/24 12:07:13;;;;;;;;;;;;;;;33.05;9.33;93464.31;2064985;69;20047;-76
2022/03/24 12:09:53;;;;;;;;;;;;;;;35.02;8.15;93456.91;2052165;70;20106;-76
2022/03/24 12:12:19;;;;;;;;;;;;;;;34.48;7.10;93454.22;2051929;69;20059;-76
2022/03/24 12:14:48;;;;;;;;;;;;;;;36.37;7.63;93458.25;2052734;70;20057;-81
2022/03/24 12:17:16;;;;;;;;;;;;;;;37.15;6.57;93450.38;2065299;69;20498;-79
2022/03/24 12:19:47;;;;;;;;;;;;;;;37.31;7.25;93449.19;2052098;70;20057;-78
2022/03/24 12:22:35;;;;;;;;;;;;;;;33.02;7.97;93445.38;2052092;70;20490;-77
2022/03/24 12:25:02;;;;;;;;;;;;;;;39.02;6.45;93446.69;2052140;70;20050;-79
2022/03/24 12:27:28;;;;;;;;;;;;;;;40.53;6.24;93446.81;2052238;69;20150;-78
2022/03/24 12:30:09;;;;;;;;;;;;;;;40.69;5.85;93444.69;2052052;69;20066;-79
2022/03/24 12:32:35;;;;;;;;;;;;;;;39.29;6.69;93436.91;2052730;69;20065;-77
2022/03/24 12:35:00;;;;;;;;;;;;;;;41.16;6.46;93442.69;2052727;70;20051;-77
2022/03/24 12:37:26;;;;;;;;;;;;;;;41.47;5.72;93436.13;2052131;70;20426;-78
2022/03/24 12:40:05;;;;;;;;;;;;;;;40.07;5.92;93434.66;2052082;70;20057;-77
2022/03/24 12:42:42;;;;;;;;;;;;;;;41.71;4.94;93437.97;2052010;70;20062;-77
2022/03/24 12:45:08;;;;;;;;;;;;;;;38.13;5.87;93424.66;2051859;70;20078;-78
2022/03/24 12:47:38;;;;;;;;;;;;;;;41.79;6.54;93413.25;2051970;70;20082;-78
2022/03/24 12:50:15;;;;;;;;;;;;;;;37.71;5.96;93414.25;2052030;69;20055;-77
2022/03/24 12:52:50;;;;;;;;;;;;;;;39.03;6.31;93406.19;2065182;69;20050;-78
2022/03/24 12:55:27;;;;;;;;;;;;;;;40.37;4.86;93415.03;2052265;70;20527;-78
2022/03/24 12:58:03;;;;;;;;;;;;;;;38.77;5.90;93399.06;2065314;69;20422;-78